createdAt,value
2022-11-05T00:00:32.549Z,1.40
2022-11-05T00:03:18.728Z,1.55
2022-11-05T00:06:08.311Z,1.70
2022-11-05T00:08:54.347Z,1.70
2022-11-05T00:11:43.191Z,1.50
2022-11-05T00:14:30.897Z,1.30
2022-11-05T00:16:59.338Z,1.50
2022-11-05T00:19:27.732Z,1.63
2022-11-05T00:22:14.049Z,1.33
2022-11-05T00:27:28.220Z,1.50
2022-11-05T00:29:57.995Z,1.33
2022-11-05T00:32:26.468Z,1.60
2022-11-05T00:34:54.891Z,1.30
2022-11-05T00:37:23.337Z,1.50
2022-11-05T00:39:51.734Z,1.77
2022-11-05T00:42:37.764Z,1.33
2022-11-05T00:45:08.670Z,1.77
2022-11-05T00:47:54.868Z,1.50
2022-11-05T00:50:23.724Z,1.48
2022-11-05T00:52:59.630Z,1.40
2022-11-05T00:55:33.257Z,1.65
2022-11-05T00:58:03.332Z,1.50
2022-11-05T01:00:34.820Z,1.80
2022-11-05T01:03:05.490Z,1.52
2022-11-05T01:05:35.455Z,1.58
2022-11-05T01:08:03.935Z,1.70
2022-11-05T01:10:32.446Z,1.75
2022-11-05T01:13:00.915Z,1.58
2022-11-05T01:15:29.341Z,1.65
2022-11-05T01:17:59.109Z,1.58
2022-11-05T01:20:27.866Z,1.40
2022-11-05T01:22:56.328Z,1.40
2022-11-05T01:25:24.808Z,1.73
2022-11-05T01:27:53.268Z,1.60
2022-11-05T01:30:22.658Z,1.40
2022-11-05T01:32:51.124Z,1.33
2022-11-05T01:35:21.129Z,1.50
2022-11-05T01:37:49.742Z,1.40
2022-11-05T01:40:20.547Z,1.40
2022-11-05T01:42:49.552Z,1.65
2022-11-05T01:45:20.326Z,1.25
2022-11-05T01:47:56.194Z,1.70
2022-11-05T01:50:31.501Z,1.45
2022-11-05T01:53:09.287Z,1.33
2022-11-05T01:55:42.139Z,1.40
2022-11-05T01:58:16.231Z,1.50
2022-11-05T02:03:17.603Z,1.63
2022-11-05T02:05:49.239Z,1.13
2022-11-05T02:08:28.172Z,1.40
2022-11-05T02:10:57.370Z,1.30
2022-11-05T02:13:25.780Z,1.50
2022-11-05T02:16:03.781Z,1.52
2022-11-05T02:18:47.159Z,1.63
2022-11-05T02:21:34.684Z,1.70
2022-11-05T02:24:39.743Z,1.20
2022-11-05T02:27:15.567Z,1.50
2022-11-05T02:30:13.111Z,1.40
2022-11-05T02:33:08.806Z,1.58
2022-11-05T02:36:10.116Z,1.35
2022-11-05T02:38:43.967Z,1.50
2022-11-05T02:41:24.893Z,1.10
2022-11-05T02:44:09.675Z,1.23
2022-11-05T02:46:47.414Z,1.42
2022-11-05T02:49:28.291Z,1.30
2022-11-05T02:51:59.140Z,1.65
2022-11-05T02:54:34.191Z,1.50
2022-11-05T02:57:04.792Z,1.23
2022-11-05T02:59:33.355Z,1.35
2022-11-05T03:02:04.073Z,1.17
2022-11-05T03:04:34.041Z,1.40
2022-11-05T03:07:20.368Z,1.23
2022-11-05T03:10:06.992Z,1.40
2022-11-05T03:12:46.639Z,1.20
2022-11-05T03:15:27.739Z,1.10
2022-11-05T03:18:03.133Z,1.35
2022-11-05T03:20:38.128Z,1.38
2022-11-05T03:23:13.931Z,1.40
2022-11-05T03:25:47.649Z,1.20
2022-11-05T03:28:19.145Z,1.30
2022-11-05T03:30:51.262Z,1.40
2022-11-05T03:33:24.485Z,1.20
2022-11-05T03:35:56.651Z,1.30
2022-11-05T03:38:29.530Z,1.30
2022-11-05T03:41:04.841Z,1.33
2022-11-05T03:43:36.292Z,1.20
2022-11-05T03:46:09.158Z,1.20
2022-11-05T03:48:41.965Z,1.35
2022-11-05T03:51:19.710Z,1.27
2022-11-05T03:53:52.358Z,1.30
2022-11-05T03:56:28.503Z,1.38
2022-11-05T03:59:01.509Z,1.23
2022-11-05T04:01:31.119Z,1.40
2022-11-05T04:03:59.634Z,1.10
2022-11-05T04:06:46.954Z,1.05
2022-11-05T04:09:33.121Z,1.20
2022-11-05T04:12:27.332Z,1.25
2022-11-05T04:14:55.838Z,1.20
2022-11-05T04:17:23.541Z,1.17
2022-11-05T04:20:09.407Z,1.10
2022-11-05T04:22:56.835Z,1.20
2022-11-05T04:25:25.362Z,1.20
2022-11-05T04:27:53.814Z,0.95
2022-11-05T04:30:21.828Z,0.98
2022-11-05T04:33:02.170Z,1.30
2022-11-05T04:35:32.407Z,0.95
2022-11-05T04:38:02.797Z,1.00
2022-11-05T04:40:31.512Z,1.05
2022-11-05T04:43:00.283Z,0.98
2022-11-05T04:45:33.000Z,0.90
2022-11-05T04:48:01.716Z,1.08
2022-11-05T04:50:30.495Z,1.10
2022-11-05T04:52:59.285Z,1.20
2022-11-05T04:55:29.139Z,1.20
2022-11-05T04:57:57.898Z,0.95
2022-11-05T05:00:26.645Z,1.02
2022-11-05T05:02:55.353Z,1.10
2022-11-05T05:05:24.035Z,1.02
2022-11-05T05:07:52.507Z,0.95
2022-11-05T05:10:20.957Z,0.90
2022-11-05T05:12:50.725Z,1.00
2022-11-05T05:15:19.223Z,1.00
2022-11-05T05:17:51.983Z,0.90
2022-11-05T05:20:38.211Z,0.90
2022-11-05T05:23:06.784Z,0.80
2022-11-05T05:25:35.228Z,0.90
2022-11-05T05:28:05.223Z,0.80
2022-11-05T05:30:33.662Z,0.90
2022-11-05T05:33:03.296Z,0.85
2022-11-05T05:35:32.313Z,0.70
2022-11-05T05:38:00.845Z,0.90
2022-11-05T05:40:29.253Z,0.93
2022-11-05T05:42:57.746Z,1.13
2022-11-05T05:45:27.924Z,0.80
2022-11-05T05:47:56.814Z,0.75
2022-11-05T05:50:25.309Z,0.90
2022-11-05T05:52:53.988Z,1.05
2022-11-05T05:55:22.519Z,0.90
2022-11-05T05:57:50.942Z,0.88
2022-11-05T06:00:19.497Z,0.98
2022-11-05T06:02:49.343Z,0.75
2022-11-05T06:05:17.964Z,0.70
2022-11-05T06:07:46.385Z,0.75
2022-11-05T06:10:14.852Z,1.00
2022-11-05T06:12:43.471Z,0.88
2022-11-05T06:15:12.038Z,0.90
2022-11-05T06:17:40.434Z,0.82
2022-11-05T06:20:11.761Z,0.80
2022-11-05T06:22:40.771Z,0.85
2022-11-05T06:25:10.695Z,0.90
2022-11-05T06:27:39.117Z,0.90
2022-11-05T06:30:08.898Z,0.73
2022-11-05T06:32:37.418Z,0.85
2022-11-05T06:35:06.331Z,0.80
2022-11-05T06:37:36.110Z,0.75
2022-11-05T06:40:05.122Z,0.80
2022-11-05T06:42:33.590Z,1.00
2022-11-05T06:45:02.071Z,0.93
2022-11-05T06:47:31.260Z,0.80
2022-11-05T06:49:59.767Z,0.80
2022-11-05T06:52:31.144Z,0.70
2022-11-05T06:55:00.920Z,0.70
2022-11-05T06:57:29.440Z,0.80
2022-11-05T07:00:05.782Z,0.70
2022-11-05T07:02:36.343Z,0.80
2022-11-05T07:05:04.973Z,0.60
2022-11-05T07:07:33.566Z,0.90
2022-11-05T07:10:03.389Z,0.63
2022-11-05T07:12:31.867Z,0.73
2022-11-05T07:15:00.406Z,0.60
2022-11-05T07:17:28.859Z,0.60
2022-11-05T07:19:57.295Z,0.75
2022-11-05T07:22:25.804Z,0.80
2022-11-05T07:24:54.332Z,0.63
2022-11-05T07:27:24.381Z,0.80
2022-11-05T07:29:52.860Z,0.60
2022-11-05T07:32:21.483Z,0.80
2022-11-05T07:34:49.948Z,0.90
2022-11-05T07:37:18.404Z,0.80
2022-11-05T07:39:46.802Z,0.70
2022-11-05T07:42:15.240Z,0.70
2022-11-05T07:44:45.038Z,0.73
2022-11-05T07:47:13.520Z,0.65
2022-11-05T07:49:42.012Z,0.65
2022-11-05T07:52:10.947Z,0.73
2022-11-05T07:54:39.396Z,0.68
2022-11-05T07:57:07.812Z,0.50
2022-11-05T07:59:36.248Z,0.90
2022-11-05T08:02:06.336Z,0.70
2022-11-05T08:04:34.918Z,0.60
2022-11-05T08:07:03.460Z,0.70
2022-11-05T08:09:31.900Z,0.70
2022-11-05T08:12:03.002Z,0.70
2022-11-05T08:14:31.839Z,0.68
2022-11-05T08:17:00.225Z,0.70
2022-11-05T08:19:30.058Z,0.80
2022-11-05T08:21:58.499Z,0.77
2022-11-05T08:24:26.967Z,0.70
2022-11-05T08:26:55.430Z,0.82
2022-11-05T08:29:23.871Z,0.88
2022-11-05T08:31:52.346Z,0.90
2022-11-05T08:34:20.763Z,0.80
2022-11-05T08:36:50.607Z,1.20
2022-11-05T08:39:19.845Z,1.05
2022-11-05T08:41:48.411Z,1.15
2022-11-05T08:44:16.862Z,0.85
2022-11-05T08:46:45.297Z,1.25
2022-11-05T08:49:14.093Z,1.35
2022-11-05T08:51:42.645Z,1.00
2022-11-05T08:54:12.463Z,1.27
2022-11-05T08:56:40.948Z,1.30
2022-11-05T08:59:09.627Z,1.10
2022-11-05T09:01:38.231Z,1.20
2022-11-05T09:04:06.816Z,1.20
2022-11-05T09:06:35.269Z,1.45
2022-11-05T09:09:03.820Z,1.35
2022-11-05T09:11:57.399Z,1.02
2022-11-05T09:14:22.075Z,1.20
2022-11-05T09:16:50.505Z,1.30
2022-11-05T09:19:18.975Z,1.25
2022-11-05T09:21:47.490Z,1.20
2022-11-05T09:24:15.915Z,1.40
2022-11-05T09:26:45.695Z,1.30
2022-11-05T09:29:14.611Z,1.30
2022-11-05T09:31:43.342Z,1.60
2022-11-05T09:34:11.732Z,1.40
2022-11-05T09:36:40.282Z,1.30
2022-11-05T09:39:08.964Z,1.40
2022-11-05T09:41:39.684Z,1.42
2022-11-05T09:44:14.769Z,1.40
2022-11-05T09:46:46.791Z,1.30
2022-11-05T09:49:25.492Z,1.30
2022-11-05T09:51:56.048Z,1.58
2022-11-05T09:54:26.947Z,1.80
2022-11-05T09:56:56.665Z,1.33
2022-11-05T09:59:30.167Z,1.45
2022-11-05T10:02:05.619Z,1.67
2022-11-05T10:04:35.177Z,1.50
2022-11-05T10:07:06.960Z,1.70
2022-11-05T10:09:40.085Z,1.73
2022-11-05T10:12:13.550Z,1.50
2022-11-05T10:14:47.969Z,1.30
2022-11-05T10:17:22.158Z,1.80
2022-11-05T10:19:56.343Z,1.80
2022-11-05T10:22:26.121Z,1.50
2022-11-05T10:24:55.860Z,1.70
2022-11-05T10:27:26.797Z,1.40
2022-11-05T10:29:56.752Z,1.75
2022-11-05T10:32:30.526Z,1.80
2022-11-05T10:35:02.588Z,1.48
2022-11-05T10:37:35.849Z,1.60
2022-11-05T10:40:15.515Z,1.38
2022-11-05T10:42:58.086Z,1.45
2022-11-05T10:45:36.078Z,1.50
2022-11-05T10:48:22.142Z,1.30
2022-11-05T10:50:50.660Z,1.40
2022-11-05T10:53:22.465Z,1.45
2022-11-05T10:55:53.922Z,1.48
2022-11-05T10:58:27.404Z,1.20
2022-11-05T11:01:07.327Z,1.30
2022-11-05T11:03:40.904Z,1.45
2022-11-05T11:06:20.875Z,1.52
2022-11-05T11:08:51.258Z,1.30
2022-11-05T11:11:29.377Z,1.40
2022-11-05T11:14:06.330Z,1.63
2022-11-05T11:16:38.472Z,1.23
2022-11-05T11:19:25.390Z,1.20
2022-11-05T11:22:17.677Z,1.30
2022-11-05T11:27:19.792Z,1.25
2022-11-05T11:29:52.231Z,1.27
2022-11-05T11:32:22.926Z,1.30
2022-11-05T11:34:54.947Z,1.17
2022-11-05T11:37:26.800Z,1.48
2022-11-05T11:39:58.774Z,1.20
2022-11-05T11:42:31.762Z,1.30
2022-11-05T11:45:06.360Z,1.20
2022-11-05T11:47:36.576Z,1.40
2022-11-05T11:50:05.132Z,1.15
2022-11-05T11:52:35.329Z,1.13
2022-11-05T11:55:22.056Z,1.13
2022-11-05T11:57:52.508Z,1.40
2022-11-05T12:00:25.868Z,1.50
2022-11-05T12:03:21.843Z,1.60
2022-11-05T12:05:56.408Z,1.65
2022-11-05T12:08:45.799Z,1.90
2022-11-05T12:11:21.122Z,1.45
2022-11-05T12:14:13.981Z,1.67
2022-11-05T12:17:13.274Z,1.75
2022-11-05T12:20:11.277Z,1.42
2022-11-05T12:22:57.526Z,1.60
2022-11-05T12:25:30.319Z,1.50
2022-11-05T12:28:16.816Z,1.50
2022-11-05T12:30:53.839Z,1.63
2022-11-05T12:33:36.143Z,1.67
2022-11-05T12:36:16.681Z,1.63
2022-11-05T12:39:04.249Z,1.45
2022-11-05T12:41:39.789Z,1.40
2022-11-05T12:44:22.224Z,1.30
2022-11-05T12:47:12.118Z,1.40
2022-11-05T12:50:00.024Z,1.50
2022-11-05T12:52:50.068Z,1.40
2022-11-05T12:55:21.157Z,1.55
2022-11-05T12:57:52.960Z,1.55
2022-11-05T13:00:23.167Z,1.55
2022-11-05T13:02:57.342Z,1.58
2022-11-05T13:05:34.647Z,1.50
2022-11-05T13:08:10.878Z,1.48
2022-11-05T13:10:43.884Z,1.80
2022-11-05T13:13:17.341Z,1.70
2022-11-05T13:15:51.774Z,1.60
2022-11-05T13:18:24.818Z,1.50
2022-11-05T13:20:55.541Z,1.60
2022-11-05T13:23:32.174Z,1.52
2022-11-05T13:26:06.961Z,1.40
2022-11-05T13:28:45.302Z,1.60
2022-11-05T13:31:19.530Z,1.40
2022-11-05T13:33:51.565Z,1.33
2022-11-05T13:36:42.459Z,1.30
2022-11-05T13:39:18.875Z,1.23
2022-11-05T13:42:05.703Z,1.65
2022-11-05T13:45:06.606Z,1.50
2022-11-05T13:48:05.218Z,1.52
2022-11-05T13:51:05.825Z,1.65
2022-11-05T13:53:51.413Z,1.52
2022-11-05T13:56:55.287Z,1.40
2022-11-05T13:59:56.122Z,1.50
2022-11-05T14:02:27.698Z,1.30
2022-11-05T14:05:01.282Z,1.50
2022-11-05T14:10:02.039Z,1.20
2022-11-05T14:12:34.250Z,1.50
2022-11-05T14:15:08.414Z,1.30
2022-11-05T14:17:55.966Z,1.58
2022-11-05T14:20:45.399Z,1.45
2022-11-05T14:23:54.014Z,1.40
2022-11-05T14:26:25.983Z,1.23
2022-11-05T14:29:23.802Z,1.30
2022-11-05T14:32:13.572Z,1.40
2022-11-05T14:34:48.273Z,1.30
2022-11-05T14:37:26.762Z,1.45
2022-11-05T14:39:56.516Z,1.42
2022-11-05T14:42:28.241Z,1.65
2022-11-05T14:45:20.067Z,1.70
2022-11-05T14:47:54.223Z,1.60
2022-11-05T14:50:29.119Z,1.77
2022-11-05T14:53:09.033Z,1.90
2022-11-05T14:58:26.792Z,1.90
2022-11-05T15:00:57.929Z,1.90
2022-11-05T15:03:41.135Z,1.70
2022-11-05T15:06:26.194Z,1.60
2022-11-05T15:09:05.072Z,1.70
2022-11-05T15:11:38.604Z,1.88
2022-11-05T15:14:17.535Z,1.70
2022-11-05T15:16:51.214Z,1.90
2022-11-05T15:19:25.391Z,1.67
2022-11-05T15:21:57.687Z,2.00
2022-11-05T15:24:28.132Z,1.80
2022-11-05T15:27:03.718Z,1.80
2022-11-05T15:29:33.833Z,1.60
2022-11-05T15:32:03.696Z,1.80
2022-11-05T15:34:35.794Z,2.00
2022-11-05T15:37:21.200Z,1.70
2022-11-05T15:39:51.842Z,1.58
2022-11-05T15:42:27.592Z,1.55
2022-11-05T15:44:57.771Z,1.70
2022-11-05T15:47:28.990Z,1.90
2022-11-05T15:49:59.451Z,1.70
2022-11-05T15:52:36.216Z,1.80
2022-11-05T15:55:19.957Z,1.77
2022-11-05T15:57:52.344Z,1.63
2022-11-05T16:00:23.874Z,1.50
2022-11-05T16:02:57.579Z,1.73
2022-11-05T16:05:29.231Z,1.70
2022-11-05T16:07:59.880Z,1.77
2022-11-05T16:10:31.798Z,1.60
2022-11-05T16:13:21.818Z,1.80
2022-11-05T16:15:55.308Z,1.60
2022-11-05T16:18:31.401Z,1.75
2022-11-05T16:21:06.377Z,1.80
2022-11-05T16:23:44.058Z,2.00
2022-11-05T16:27:01.145Z,1.73
2022-11-05T16:29:29.340Z,1.80
2022-11-05T16:31:59.667Z,2.13
2022-11-05T16:34:34.802Z,1.80
2022-11-05T16:37:05.598Z,2.00
2022-11-05T16:39:34.674Z,1.92
2022-11-05T16:42:03.294Z,1.80
2022-11-05T16:44:31.768Z,1.90
2022-11-05T16:47:00.296Z,1.80
2022-11-05T16:49:30.140Z,1.80
2022-11-05T16:52:00.360Z,1.77
2022-11-05T16:54:28.828Z,2.10
2022-11-05T16:56:57.283Z,1.90
2022-11-05T16:59:25.688Z,2.00
2022-11-05T17:01:55.922Z,1.90
2022-11-05T17:04:24.744Z,1.70
2022-11-05T17:06:54.652Z,1.70
2022-11-05T17:09:23.061Z,2.00
2022-11-05T17:11:52.609Z,1.83
2022-11-05T17:14:21.077Z,1.92
2022-11-05T17:16:49.563Z,1.80
2022-11-05T17:19:18.028Z,1.80
2022-11-05T17:21:46.640Z,1.98
2022-11-05T17:24:16.457Z,2.22
2022-11-05T17:26:45.007Z,2.08
2022-11-05T17:29:13.446Z,2.00
2022-11-05T17:31:42.449Z,2.00
2022-11-05T17:34:11.218Z,2.10
2022-11-05T17:36:39.738Z,1.63
2022-11-05T17:39:08.263Z,1.80
2022-11-05T17:41:38.077Z,1.60
2022-11-05T17:44:06.776Z,1.83
2022-11-05T17:46:35.206Z,1.95
2022-11-05T17:49:03.626Z,1.80
2022-11-05T17:51:32.701Z,1.70
2022-11-05T17:54:01.188Z,1.88
2022-11-05T17:56:34.930Z,1.60
2022-11-05T17:59:06.923Z,1.88
2022-11-05T18:01:37.264Z,1.92
2022-11-05T18:04:09.094Z,2.10
2022-11-05T18:06:38.518Z,1.77
2022-11-05T18:09:07.655Z,2.13
2022-11-05T18:11:37.021Z,2.13
2022-11-05T18:14:07.061Z,2.38
2022-11-05T18:16:36.159Z,2.25
2022-11-05T18:19:05.049Z,2.60
2022-11-05T18:21:33.500Z,2.95
2022-11-05T18:24:03.566Z,3.00
2022-11-05T18:26:32.064Z,2.80
2022-11-05T18:29:01.092Z,2.30
2022-11-05T18:31:30.951Z,2.50
2022-11-05T18:34:00.694Z,2.53
2022-11-05T18:36:31.618Z,2.25
2022-11-05T18:39:02.181Z,2.40
2022-11-05T18:41:30.992Z,2.30
2022-11-05T18:44:00.758Z,2.90
2022-11-05T18:46:56.601Z,2.40
2022-11-05T18:49:19.523Z,2.55
2022-11-05T18:51:48.137Z,2.33
2022-11-05T18:54:16.883Z,2.80
2022-11-05T18:56:46.177Z,2.80
2022-11-05T19:02:07.235Z,2.90
2022-11-05T19:04:36.390Z,2.60
2022-11-05T19:07:05.871Z,2.20
2022-11-05T19:09:35.272Z,2.50
2022-11-05T19:12:04.997Z,2.05
2022-11-05T19:14:33.975Z,2.58
2022-11-05T19:17:02.944Z,2.45
2022-11-05T19:19:32.757Z,2.70
2022-11-05T19:22:01.188Z,2.20
2022-11-05T19:24:29.694Z,2.05
2022-11-05T19:26:58.099Z,1.70
2022-11-05T19:29:26.547Z,1.88
2022-11-05T19:31:55.076Z,1.35
2022-11-05T19:34:24.678Z,1.50
2022-11-05T19:36:54.474Z,1.70
2022-11-05T19:39:22.968Z,1.70
2022-11-05T19:41:51.463Z,1.88
2022-11-05T19:44:21.640Z,2.08
2022-11-05T19:46:50.101Z,1.85
2022-11-05T19:49:18.517Z,2.00
2022-11-05T19:51:46.923Z,1.65
2022-11-05T19:54:16.954Z,1.98
2022-11-05T19:56:45.672Z,2.30
2022-11-05T19:59:17.157Z,1.88
2022-11-05T20:01:45.761Z,1.73
2022-11-05T20:04:14.405Z,1.90
2022-11-05T20:06:42.879Z,1.83
2022-11-05T20:09:22.049Z,1.70
2022-11-05T20:11:54.189Z,2.15
2022-11-05T20:14:23.469Z,1.70
2022-11-05T20:16:52.350Z,1.75
2022-11-05T20:19:22.579Z,2.00
2022-11-05T20:21:51.100Z,1.98
2022-11-05T20:24:25.093Z,1.83
2022-11-05T20:26:56.409Z,2.30
2022-11-05T20:29:34.732Z,1.75
2022-11-05T20:34:37.186Z,1.80
2022-11-05T20:37:05.684Z,2.00
2022-11-05T20:39:34.197Z,2.05
2022-11-05T20:42:06.719Z,2.10
2022-11-05T20:44:36.493Z,1.92
2022-11-05T20:47:05.116Z,2.17
2022-11-05T20:49:33.533Z,2.20
2022-11-05T20:52:01.931Z,2.20
2022-11-05T20:54:30.415Z,2.22
2022-11-05T20:56:58.863Z,2.10
2022-11-05T20:59:31.159Z,2.10
2022-11-05T21:02:00.735Z,2.10
2022-11-05T21:04:29.458Z,2.10
2022-11-05T21:06:57.931Z,2.15
2022-11-05T21:09:26.661Z,2.22
2022-11-05T21:12:13.378Z,2.30
2022-11-05T21:14:44.371Z,2.20
2022-11-05T21:17:15.285Z,2.10
2022-11-05T21:19:45.466Z,2.53
2022-11-05T21:22:15.875Z,2.25
2022-11-05T21:24:44.706Z,2.35
2022-11-05T21:27:16.656Z,2.67
2022-11-05T21:29:46.496Z,2.42
2022-11-05T21:32:15.010Z,2.53
2022-11-05T21:34:43.397Z,2.17
2022-11-05T21:37:11.817Z,2.30
2022-11-05T21:39:40.211Z,2.80
2022-11-05T21:42:11.151Z,2.58
2022-11-05T21:44:39.657Z,2.50
2022-11-05T21:47:09.790Z,2.53
2022-11-05T21:49:39.667Z,2.25
2022-11-05T21:52:24.958Z,2.40
2022-11-05T21:55:11.097Z,2.40
2022-11-05T21:57:57.642Z,2.50
2022-11-05T22:00:26.685Z,2.42
2022-11-05T22:02:56.720Z,2.55
2022-11-05T22:05:25.240Z,2.47
2022-11-05T22:07:53.665Z,2.80
2022-11-05T22:10:22.291Z,2.53
2022-11-05T22:12:52.696Z,2.58
2022-11-05T22:15:21.142Z,2.78
2022-11-05T22:17:51.043Z,2.90
2022-11-05T22:20:20.839Z,2.78
2022-11-05T22:22:49.262Z,2.67
2022-11-05T22:25:18.304Z,2.30
2022-11-05T22:27:46.975Z,2.88
2022-11-05T22:30:15.797Z,2.63
2022-11-05T22:32:46.061Z,2.80
2022-11-05T22:35:14.482Z,2.90
2022-11-05T22:37:44.294Z,2.70
2022-11-05T22:40:12.928Z,2.38
2022-11-05T22:42:41.471Z,2.72
2022-11-05T22:45:10.909Z,3.15
2022-11-05T22:47:41.801Z,2.72
2022-11-05T22:50:10.601Z,3.17
2022-11-05T22:52:39.047Z,2.75
2022-11-05T22:55:09.595Z,2.70
2022-11-05T22:57:39.504Z,3.08
2022-11-05T23:00:17.008Z,2.75
2022-11-05T23:02:48.407Z,2.60
2022-11-05T23:05:17.022Z,2.78
2022-11-05T23:08:03.013Z,3.03
2022-11-05T23:10:50.367Z,2.90
2022-11-05T23:13:19.027Z,2.58
2022-11-05T23:16:05.052Z,3.05
2022-11-05T23:18:51.176Z,2.72
2022-11-05T23:21:37.342Z,2.70
2022-11-05T23:24:06.698Z,2.70
2022-11-05T23:26:53.916Z,2.42
2022-11-05T23:29:24.725Z,3.08
2022-11-05T23:32:11.380Z,2.47
2022-11-05T23:34:40.184Z,2.90
2022-11-05T23:37:26.152Z,2.72
2022-11-05T23:39:54.585Z,3.13
2022-11-05T23:42:42.073Z,2.67
2022-11-05T23:45:30.607Z,2.88
2022-11-05T23:48:17.487Z,2.67
2022-11-05T23:50:49.174Z,2.55
2022-11-05T23:53:18.306Z,2.92
2022-11-05T23:55:46.809Z,2.65
2022-11-05T23:58:17.320Z,2.70
